Time;durP1;ratioP1;P1;durP2;ratioP2;P2;SDS_P1;SDS_P2;PMS_P1;PMS_P2;Temp;Humidity;BMP_temperature;BMP_pressure;BME280_temperature;BME280_humidity;BME280_pressure;Samples;Min_cycle;Max_cycle;Signal;HPM_P1;HPM_P2
2022/07/25 00:00:28;;;;;;;6.50;4.78;;;21.90;99.90;;;;;;5044128;28;20550;-84
2022/07/25 00:02:54;;;;;;;7.18;5.28;;;21.80;99.90;;;;;;5042681;28;20136;-82
2022/07/25 00:05:20;;;;;;;6.20;4.93;;;21.80;99.90;;;;;;5045545;28;20185;-83
2022/07/25 00:07:45;;;;;;;7.15;5.25;;;21.80;99.90;;;;;;5043188;28;20047;-84
2022/07/25 00:10:11;;;;;;;7.95;6.68;;;21.80;99.90;;;;;;5046268;28;20033;-86
2022/07/25 00:12:37;;;;;;;20.92;15.10;;;21.80;99.90;;;;;;5043725;28;20037;-86
2022/07/25 00:15:03;;;;;;;11.30;8.00;;;21.80;99.90;;;;;;5037780;28;20512;-86
2022/07/25 00:17:29;;;;;;;8.02;6.18;;;21.80;99.90;;;;;;5039982;28;20464;-84
2022/07/25 00:19:55;;;;;;;7.60;6.07;;;21.70;99.90;;;;;;5035712;28;20044;-84
2022/07/25 00:22:20;;;;;;;7.28;5.55;;;21.70;99.90;;;;;;5042198;28;20092;-85
2022/07/25 00:24:46;;;;;;;6.53;5.50;;;21.70;99.90;;;;;;5042850;28;20503;-85
2022/07/25 00:27:11;;;;;;;7.10;5.47;;;21.70;99.90;;;;;;5038891;28;20068;-85
2022/07/25 00:29:37;;;;;;;8.15;5.97;;;21.70;99.90;;;;;;5046265;28;20564;-85
2022/07/25 00:32:03;;;;;;;7.20;5.68;;;21.60;99.90;;;;;;5043884;28;20504;-85
2022/07/25 00:34:29;;;;;;;6.93;5.57;;;21.60;99.90;;;;;;5042786;28;20108;-87
2022/07/25 00:36:55;;;;;;;6.35;5.15;;;21.60;99.90;;;;;;5041722;28;20499;-86
2022/07/25 00:39:21;;;;;;;6.78;5.53;;;21.50;99.90;;;;;;5043943;28;20038;-85
2022/07/25 00:41:47;;;;;;;6.75;5.20;;;21.50;99.90;;;;;;5043779;28;20077;-86
2022/07/25 00:44:28;;;;;;;8.63;6.20;;;21.50;99.90;;;;;;5041487;28;20064;-85
2022/07/25 00:46:54;;;;;;;6.88;5.35;;;21.40;99.90;;;;;;5041378;28;20509;-85
2022/07/25 00:49:20;;;;;;;6.60;5.70;;;21.40;99.90;;;;;;5044571;28;20037;-86
2022/07/25 00:51:46;;;;;;;7.53;5.65;;;21.40;99.90;;;;;;5042538;28;20045;-86
2022/07/25 00:54:13;;;;;;;6.90;5.55;;;21.40;99.90;;;;;;5044631;28;20053;-85
2022/07/25 00:56:39;;;;;;;6.13;5.38;;;21.30;99.90;;;;;;5040230;28;20053;-85
2022/07/25 00:59:05;;;;;;;6.82;5.32;;;21.30;99.90;;;;;;5041323;28;20108;-84
2022/07/25 01:01:31;;;;;;;7.30;5.40;;;21.30;99.90;;;;;;5043423;28;20045;-87
2022/07/25 01:03:57;;;;;;;7.22;5.70;;;21.30;99.90;;;;;;5044244;28;20168;-86
2022/07/25 01:06:23;;;;;;;6.50;4.78;;;21.20;99.90;;;;;;5045792;28;20041;-86
2022/07/25 01:08:48;;;;;;;7.53;5.03;;;21.20;99.90;;;;;;5042542;28;20397;-85
2022/07/25 01:11:14;;;;;;;8.18;5.30;;;21.20;99.90;;;;;;5040627;28;20048;-85
2022/07/25 01:13:40;;;;;;;6.95;5.32;;;21.20;99.90;;;;;;5043742;28;20112;-86
2022/07/25 01:16:06;;;;;;;7.72;5.43;;;21.10;99.90;;;;;;5039164;28;20053;-86
2022/07/25 01:18:33;;;;;;;7.03;5.45;;;21.00;99.90;;;;;;5044016;28;20041;-86
2022/07/25 01:20:59;;;;;;;7.15;5.50;;;20.90;99.90;;;;;;5038670;28;20051;-86
2022/07/25 01:23:25;;;;;;;6.00;5.10;;;20.90;99.90;;;;;;5041725;28;20052;-86
2022/07/25 01:25:52;;;;;;;6.45;5.10;;;20.90;99.90;;;;;;5041340;28;20037;-85
2022/07/25 01:28:17;;;;;;;6.30;5.57;;;20.80;99.90;;;;;;5043391;28;20560;-86
2022/07/25 01:30:43;;;;;;;7.32;6.20;;;20.80;99.90;;;;;;5041541;28;20128;-86
2022/07/25 01:33:13;;;;;;;7.50;5.85;;;20.80;99.90;;;;;;5040219;28;20426;-86
2022/07/25 01:35:39;;;;;;;8.25;5.53;;;20.80;99.90;;;;;;5044823;28;20041;-88
2022/07/25 01:38:04;;;;;;;6.70;5.32;;;20.80;99.90;;;;;;5045569;28;20053;-89
2022/07/25 01:40:30;;;;;;;7.28;5.30;;;20.80;99.90;;;;;;5046080;28;20071;-87
2022/07/25 01:42:56;;;;;;;6.28;4.82;;;20.80;99.90;;;;;;5041637;28;20056;-88
2022/07/25 01:45:22;;;;;;;7.07;5.60;;;20.80;99.90;;;;;;5048006;28;20089;-88
2022/07/25 01:47:47;;;;;;;6.47;5.30;;;20.80;99.90;;;;;;5049607;28;20120;-89
2022/07/25 01:50:13;;;;;;;6.22;5.10;;;20.80;99.90;;;;;;5043705;28;20045;-89
2022/07/25 01:52:39;;;;;;;6.75;5.43;;;20.80;99.90;;;;;;5033768;28;20059;-88
2022/07/25 01:55:05;;;;;;;5.70;4.68;;;20.90;99.90;;;;;;5042774;28;20056;-88
2022/07/25 01:57:34;;;;;;;8.48;5.10;;;20.90;99.90;;;;;;5038924;28;20033;-89
2022/07/25 02:00:00;;;;;;;7.05;4.95;;;20.90;99.90;;;;;;5038355;28;20029;-88
2022/07/25 02:02:26;;;;;;;7.45;5.03;;;20.90;99.90;;;;;;5045907;28;20052;-87
2022/07/25 02:04:53;;;;;;;6.28;4.75;;;21.00;99.90;;;;;;5039927;28;20040;-86
2022/07/25 02:07:18;;;;;;;6.65;4.80;;;21.00;99.90;;;;;;5040858;28;20049;-86
2022/07/25 02:09:44;;;;;;;7.68;5.35;;;21.00;99.90;;;;;;5037647;28;20067;-86
2022/07/25 02:12:10;;;;;;;6.82;5.00;;;21.00;99.90;;;;;;5038527;28;20064;-86
2022/07/25 02:14:38;;;;;;;6.80;5.35;;;21.00;99.90;;;;;;5041725;28;20033;-85
2022/07/25 02:17:04;;;;;;;8.18;4.88;;;21.00;99.90;;;;;;5038880;28;20048;-85
2022/07/25 02:19:29;;;;;;;7.13;5.20;;;20.90;99.90;;;;;;5045005;28;20037;-86
2022/07/25 02:21:55;;;;;;;6.38;5.05;;;21.00;99.90;;;;;;5040300;28;20100;-86
2022/07/25 02:24:21;;;;;;;6.22;5.22;;;20.90;99.90;;;;;;5043850;28;20044;-87
2022/07/25 02:26:47;;;;;;;6.00;4.55;;;21.00;99.90;;;;;;5038957;28;20056;-86
2022/07/25 02:29:12;;;;;;;7.25;4.50;;;20.90;99.90;;;;;;5037760;28;20033;-88
2022/07/25 02:31:38;;;;;;;7.10;4.85;;;20.90;99.90;;;;;;5037572;28;20485;-87
2022/07/25 02:34:04;;;;;;;6.00;4.72;;;20.90;99.90;;;;;;5043896;28;20052;-88
2022/07/25 02:36:29;;;;;;;6.40;5.22;;;20.90;99.90;;;;;;5038768;28;20046;-89
2022/07/25 02:38:55;;;;;;;6.18;4.72;;;20.80;99.90;;;;;;5039790;28;20153;-87
2022/07/25 02:41:21;;;;;;;6.15;4.65;;;20.80;99.90;;;;;;5040535;28;20052;-88
2022/07/25 02:43:47;;;;;;;6.00;4.72;;;20.80;99.90;;;;;;5035730;28;20049;-87
2022/07/25 02:46:12;;;;;;;6.45;4.72;;;20.80;99.90;;;;;;5037329;28;20038;-87
2022/07/25 02:48:38;;;;;;;5.93;4.45;;;20.80;99.90;;;;;;5034101;28;20051;-87
2022/07/25 02:51:03;;;;;;;7.45;5.40;;;20.80;99.90;;;;;;5044249;28;20099;-87
2022/07/25 02:53:29;;;;;;;7.07;5.30;;;20.70;99.90;;;;;;5053014;28;20069;-87
2022/07/25 02:55:55;;;;;;;6.70;5.40;;;20.60;99.90;;;;;;5058649;28;20044;-86
2022/07/25 02:58:20;;;;;;;6.78;4.85;;;20.60;99.90;;;;;;5047351;28;20059;-87
2022/07/25 03:00:46;;;;;;;7.53;5.60;;;20.60;99.90;;;;;;5049018;28;20408;-86
2022/07/25 03:03:12;;;;;;;6.65;5.05;;;20.60;99.90;;;;;;5044854;28;20049;-86
2022/07/25 03:05:37;;;;;;;6.60;5.13;;;20.60;99.90;;;;;;5047502;28;20112;-86
2022/07/25 03:08:03;;;;;;;7.72;4.70;;;20.50;99.90;;;;;;5043739;28;20253;-86
2022/07/25 03:10:33;;;;;;;6.75;5.40;;;20.50;99.90;;;;;;5051195;28;20021;-86
2022/07/25 03:12:58;;;;;;;7.72;5.40;;;20.50;99.90;;;;;;5051518;28;20060;-85
2022/07/25 03:15:24;;;;;;;7.57;5.18;;;20.50;99.90;;;;;;5047131;28;20038;-86
2022/07/25 03:17:50;;;;;;;6.13;5.07;;;20.50;99.90;;;;;;5038923;28;20472;-86
2022/07/25 03:20:16;;;;;;;7.20;5.13;;;20.40;99.90;;;;;;5039896;28;20037;-87
2022/07/25 03:22:41;;;;;;;6.90;4.80;;;20.40;99.90;;;;;;5036278;28;20072;-87
2022/07/25 03:25:08;;;;;;;6.90;4.85;;;20.40;99.90;;;;;;5039582;28;20044;-86
2022/07/25 03:27:33;;;;;;;7.57;4.75;;;20.40;99.90;;;;;;5039535;28;20041;-85
2022/07/25 03:29:59;;;;;;;6.50;4.68;;;20.40;99.90;;;;;;5041845;28;20429;-87
2022/07/25 03:32:25;;;;;;;6.13;4.97;;;20.30;99.90;;;;;;5043750;28;20400;-85
2022/07/25 03:34:50;;;;;;;5.80;4.60;;;20.30;99.90;;;;;;5041173;28;20041;-85
2022/07/25 03:37:16;;;;;;;6.47;4.90;;;20.30;99.90;;;;;;5039405;28;20501;-86
2022/07/25 03:39:42;;;;;;;6.25;4.88;;;20.30;99.90;;;;;;5043462;28;20037;-86
2022/07/25 03:42:07;;;;;;;7.32;5.05;;;20.30;99.90;;;;;;5039538;28;20122;-84
2022/07/25 03:44:33;;;;;;;6.47;5.18;;;20.20;99.90;;;;;;5041334;28;20405;-85
2022/07/25 03:46:58;;;;;;;6.65;5.22;;;20.30;99.90;;;;;;5041053;28;20057;-84
2022/07/25 03:49:24;;;;;;;6.90;5.15;;;20.20;99.90;;;;;;5043575;28;20037;-85
2022/07/25 03:51:50;;;;;;;8.00;6.38;;;20.20;99.90;;;;;;5043909;28;20397;-86
2022/07/25 03:54:15;;;;;;;7.50;5.97;;;20.20;99.90;;;;;;5043553;28;20132;-87
2022/07/25 03:56:46;;;;;;;7.95;6.40;;;20.20;99.90;;;;;;5045967;28;20447;-91
2022/07/25 03:59:14;;;;;;;7.30;5.80;;;20.10;99.90;;;;;;5047993;28;20185;-91
2022/07/25 04:01:41;;;;;;;11.02;7.30;;;20.10;99.90;;;;;;5036313;28;20048;-88
2022/07/25 04:04:08;;;;;;;8.98;6.95;;;20.10;99.90;;;;;;5045651;28;20052;-87
2022/07/25 04:06:38;;;;;;;9.30;7.00;;;20.10;99.90;;;;;;5047429;28;20088;-88
2022/07/25 04:09:04;;;;;;;9.48;6.82;;;20.10;99.90;;;;;;5038660;28;20044;-88
2022/07/25 04:11:29;;;;;;;8.55;6.20;;;20.00;99.90;;;;;;5040954;28;20047;-88
2022/07/25 04:13:56;;;;;;;8.75;6.68;;;20.00;99.90;;;;;;5043793;28;20456;-87
2022/07/25 04:16:22;;;;;;;7.55;6.38;;;19.90;99.90;;;;;;5045677;28;20120;-87
2022/07/25 04:18:48;;;;;;;10.25;6.88;;;19.90;99.90;;;;;;5042965;28;20127;-87
2022/07/25 04:21:13;;;;;;;9.10;6.78;;;19.90;99.90;;;;;;5044650;28;20040;-85
2022/07/25 04:23:39;;;;;;;9.98;7.55;;;19.90;99.90;;;;;;5044019;28;20045;-84
2022/07/25 04:26:05;;;;;;;9.27;7.05;;;20.00;99.90;;;;;;5040780;28;20044;-85
2022/07/25 04:28:31;;;;;;;8.93;7.03;;;20.00;99.90;;;;;;5042975;28;20037;-85
2022/07/25 04:30:57;;;;;;;8.82;6.90;;;19.90;99.90;;;;;;5042140;28;20227;-85
2022/07/25 04:33:23;;;;;;;8.15;7.00;;;20.00;99.90;;;;;;5046811;28;20113;-85
2022/07/25 04:35:49;;;;;;;13.65;7.82;;;20.00;99.90;;;;;;5044200;28;20495;-85
2022/07/25 04:38:15;;;;;;;10.43;7.45;;;19.80;99.90;;;;;;5042250;28;20037;-86
2022/07/25 04:40:41;;;;;;;11.45;7.82;;;20.10;99.90;;;;;;5043080;28;20456;-85
2022/07/25 04:43:07;;;;;;;9.43;7.63;;;20.10;99.90;;;;;;5043570;28;20056;-86
2022/07/25 04:45:33;;;;;;;12.52;7.47;;;20.10;99.90;;;;;;5042656;28;20038;-87
2022/07/25 04:47:59;;;;;;;8.18;7.13;;;20.10;99.90;;;;;;5045516;28;20047;-85
2022/07/25 04:50:25;;;;;;;8.32;6.28;;;20.10;99.90;;;;;;5042428;28;20037;-86
2022/07/25 04:52:54;;;;;;;9.00;6.85;;;20.10;99.90;;;;;;5043751;28;20041;-85
2022/07/25 04:55:20;;;;;;;7.60;6.43;;;20.20;99.90;;;;;;5041406;28;20094;-86
2022/07/25 04:57:46;;;;;;;8.60;6.38;;;20.10;99.90;;;;;;5040751;28;20116;-85
2022/07/25 05:00:12;;;;;;;8.05;6.47;;;20.10;99.90;;;;;;5041624;28;20037;-85
2022/07/25 05:02:38;;;;;;;10.05;6.50;;;20.20;99.90;;;;;;5043040;28;20045;-86
2022/07/25 05:05:05;;;;;;;7.55;5.88;;;20.20;99.90;;;;;;5043485;28;20559;-85
2022/07/25 05:07:30;;;;;;;8.65;7.00;;;20.20;99.90;;;;;;5041625;28;20037;-85
2022/07/25 05:09:56;;;;;;;7.80;6.43;;;20.30;99.90;;;;;;5045448;28;20052;-85
2022/07/25 05:12:22;;;;;;;9.13;7.05;;;20.30;99.90;;;;;;5040956;28;20442;-85
2022/07/25 05:14:47;;;;;;;8.57;7.20;;;20.40;99.90;;;;;;5044545;28;20116;-85
2022/07/25 05:17:13;;;;;;;10.98;7.78;;;20.30;99.90;;;;;;5042838;28;20120;-86
2022/07/25 05:19:38;;;;;;;9.20;7.30;;;20.30;99.90;;;;;;5044414;28;20037;-86
2022/07/25 05:22:04;;;;;;;9.27;7.85;;;20.30;99.90;;;;;;5041734;28;20037;-86
2022/07/25 05:24:34;;;;;;;9.10;7.28;;;20.30;99.90;;;;;;5041445;28;20405;-86
2022/07/25 05:27:00;;;;;;;10.65;7.45;;;20.30;99.90;;;;;;5043093;28;20041;-85
2022/07/25 05:29:26;;;;;;;8.98;7.63;;;20.30;99.90;;;;;;5042421;28;20831;-86
2022/07/25 05:31:52;;;;;;;9.93;7.45;;;20.30;99.90;;;;;;5036628;28;20057;-84
2022/07/25 05:34:18;;;;;;;9.40;7.35;;;20.40;99.90;;;;;;5040182;28;20040;-86
2022/07/25 05:36:44;;;;;;;10.43;7.40;;;20.50;99.90;;;;;;5041303;28;20095;-86
2022/07/25 05:39:09;;;;;;;10.13;8.20;;;20.70;99.90;;;;;;5043600;28;20456;-85
2022/07/25 05:41:35;;;;;;;8.68;7.57;;;20.80;99.90;;;;;;5043212;28;20065;-86
2022/07/25 05:44:01;;;;;;;11.65;8.20;;;20.90;99.90;;;;;;5047869;28;20033;-85
2022/07/25 05:46:26;;;;;;;10.27;8.18;;;21.10;99.90;;;;;;5041056;28;20468;-85
2022/07/25 05:48:55;;;;;;;9.75;7.95;;;21.10;99.90;;;;;;5039361;28;20067;-85
2022/07/25 05:51:20;;;;;;;10.07;7.72;;;21.20;99.90;;;;;;5040111;28;20486;-85
2022/07/25 05:53:47;;;;;;;11.25;8.30;;;21.30;99.90;;;;;;5040663;28;20551;-85
2022/07/25 05:56:13;;;;;;;10.40;8.02;;;21.30;99.90;;;;;;5036918;28;20073;-86
2022/07/25 05:58:39;;;;;;;9.25;7.72;;;21.40;99.90;;;;;;5044224;28;20037;-84
2022/07/25 06:01:15;;;;;;;10.07;8.25;;;21.40;99.90;;;;;;5040182;28;20049;-85
2022/07/25 06:03:41;;;;;;;9.45;8.32;;;21.40;99.90;;;;;;5043002;28;20041;-85
2022/07/25 06:06:10;;;;;;;11.80;8.32;;;21.50;99.90;;;;;;5041094;28;20116;-85
2022/07/25 06:08:37;;;;;;;11.90;8.80;;;21.60;99.90;;;;;;5042653;28;20139;-85
2022/07/25 06:11:04;;;;;;;12.60;9.15;;;21.80;99.90;;;;;;5039627;28;20055;-87
2022/07/25 06:13:30;;;;;;;11.07;8.27;;;21.90;99.90;;;;;;5042160;28;20041;-87
2022/07/25 06:15:56;;;;;;;10.15;8.05;;;21.90;99.90;;;;;;5042920;28;20374;-90
2022/07/25 06:18:23;;;;;;;10.48;8.40;;;22.00;99.90;;;;;;5048480;28;20168;-92
2022/07/25 06:20:49;;;;;;;9.32;7.30;;;22.00;99.90;;;;;;5045380;28;20033;-93
2022/07/25 06:23:15;;;;;;;11.18;7.07;;;22.10;99.90;;;;;;5053719;28;20049;-92
2022/07/25 06:25:41;;;;;;;9.60;6.53;;;22.20;99.90;;;;;;5054351;28;20044;-82
2022/07/25 06:28:07;;;;;;;9.13;5.68;;;22.20;99.90;;;;;;5040677;28;20088;-85
2022/07/25 06:30:33;;;;;;;7.20;5.40;;;22.10;99.90;;;;;;5042394;28;20045;-87
2022/07/25 06:32:59;;;;;;;7.47;4.95;;;22.20;99.90;;;;;;5045271;28;20096;-87
2022/07/25 06:35:24;;;;;;;6.00;4.38;;;22.30;99.90;;;;;;5043056;28;20041;-88
2022/07/25 06:37:53;;;;;;;5.88;4.25;;;22.40;99.90;;;;;;5040846;28;20049;-87
2022/07/25 06:40:19;;;;;;;5.53;3.67;;;22.50;99.90;;;;;;5040491;28;20053;-86
2022/07/25 06:42:46;;;;;;;8.82;4.00;;;22.60;99.90;;;;;;5042627;28;20501;-87
2022/07/25 06:45:12;;;;;;;5.18;3.47;;;22.80;99.90;;;;;;5039995;28;20041;-87
2022/07/25 06:47:39;;;;;;;5.55;3.67;;;23.00;99.90;;;;;;5044403;28;20045;-87
2022/07/25 06:50:07;;;;;;;4.50;3.25;;;23.00;99.90;;;;;;5036602;28;20504;-87
2022/07/25 06:52:33;;;;;;;6.18;3.65;;;23.20;99.90;;;;;;5042938;28;20041;-86
2022/07/25 06:54:59;;;;;;;5.13;2.97;;;23.30;99.90;;;;;;5039137;28;20408;-87
2022/07/25 06:57:25;;;;;;;4.65;3.35;;;23.30;99.90;;;;;;5041900;28;20041;-86
2022/07/25 06:59:50;;;;;;;4.10;2.80;;;23.30;99.90;;;;;;5041196;28;20041;-86
2022/07/25 07:02:16;;;;;;;5.63;3.10;;;23.20;99.90;;;;;;5040557;28;20136;-87
2022/07/25 07:04:41;;;;;;;3.95;2.65;;;23.10;99.90;;;;;;5041908;28;20122;-87
2022/07/25 07:07:10;;;;;;;7.18;3.28;;;22.90;99.90;;;;;;5043632;28;20119;-86
2022/07/25 07:09:36;;;;;;;5.95;3.10;;;22.80;99.90;;;;;;5039023;28;20033;-86
2022/07/25 07:12:02;;;;;;;4.53;2.70;;;22.60;99.90;;;;;;5044059;28;20095;-87
2022/07/25 07:14:28;;;;;;;6.60;3.17;;;22.50;99.90;;;;;;5040140;28;20467;-86
2022/07/25 07:16:54;;;;;;;4.63;2.70;;;22.40;99.90;;;;;;5042280;28;20136;-86
2022/07/25 07:19:19;;;;;;;5.22;2.72;;;22.30;99.90;;;;;;5041584;28;20033;-87
2022/07/25 07:21:45;;;;;;;4.82;2.40;;;22.20;99.90;;;;;;5040592;28;20409;-87
2022/07/25 07:24:11;;;;;;;4.20;2.60;;;22.10;99.90;;;;;;5044561;28;20064;-87
2022/07/25 07:26:36;;;;;;;5.07;2.60;;;22.10;99.90;;;;;;5044481;28;20120;-86
2022/07/25 07:29:05;;;;;;;6.57;2.47;;;22.00;99.90;;;;;;5046445;28;20045;-86
2022/07/25 07:31:31;;;;;;;4.10;2.20;;;21.90;99.90;;;;;;5042838;28;20034;-87
2022/07/25 07:33:58;;;;;;;4.18;2.33;;;21.70;99.90;;;;;;5038380;28;20045;-85
2022/07/25 07:36:24;;;;;;;4.05;2.17;;;21.70;99.90;;;;;;5038905;28;20072;-88
2022/07/25 07:38:51;;;;;;;3.53;1.95;;;21.60;99.90;;;;;;5046090;28;20072;-85
2022/07/25 07:41:18;;;;;;;3.55;2.20;;;21.50;99.90;;;;;;5044003;28;20099;-87
2022/07/25 07:43:47;;;;;;;3.53;2.00;;;21.40;99.90;;;;;;5037504;28;21267;-85
2022/07/25 07:46:12;;;;;;;4.80;1.95;;;21.50;99.90;;;;;;5043214;28;20037;-85
2022/07/25 07:48:38;;;;;;;4.07;2.20;;;21.50;99.90;;;;;;5044085;28;20128;-86
2022/07/25 07:51:04;;;;;;;6.45;2.20;;;21.50;99.90;;;;;;5042901;28;20037;-84
2022/07/25 07:56:15;;;;;;;4.40;2.53;;;21.60;99.90;;;;;;5035881;28;20057;-85
2022/07/25 07:58:44;;;;;;;6.07;2.40;;;21.50;99.90;;;;;;5037791;28;20037;-81
2022/07/25 08:01:10;;;;;;;4.38;2.38;;;21.50;99.90;;;;;;5036316;28;20506;-81
2022/07/25 08:03:36;;;;;;;4.32;2.40;;;21.60;99.90;;;;;;5037274;28;20148;-82
2022/07/25 08:06:04;;;;;;;3.60;2.17;;;21.70;99.90;;;;;;5034132;28;20034;-85
2022/07/25 08:08:30;;;;;;;5.55;2.53;;;21.70;99.90;;;;;;5034063;28;20045;-84
2022/07/25 08:10:58;;;;;;;7.63;2.47;;;21.90;99.90;;;;;;5033154;28;20370;-85
2022/07/25 08:13:29;;;;;;;3.40;2.33;;;22.20;99.90;;;;;;5034592;28;20065;-86
2022/07/25 08:15:57;;;;;;;5.32;2.63;;;22.30;99.90;;;;;;5031000;28;20085;-83
2022/07/25 08:18:24;;;;;;;6.43;2.20;;;22.40;99.90;;;;;;5031384;28;20088;-87
2022/07/25 08:20:50;;;;;;;4.00;2.00;;;22.50;99.90;;;;;;5044329;28;20363;-84
2022/07/25 08:23:17;;;;;;;6.13;2.30;;;22.60;99.90;;;;;;5051635;28;20055;-87
2022/07/25 08:25:43;;;;;;;4.22;1.77;;;22.80;99.90;;;;;;5045277;28;20100;-85
2022/07/25 08:28:09;;;;;;;4.80;2.10;;;23.10;99.90;;;;;;5054898;28;20059;-91
2022/07/25 08:30:37;;;;;;;5.25;1.95;;;23.20;99.90;;;;;;5050795;28;20497;-85
2022/07/25 08:33:05;;;;;;;4.93;2.05;;;23.30;99.90;;;;;;5041031;28;20065;-88
2022/07/25 08:35:32;;;;;;;3.83;1.92;;;23.40;99.90;;;;;;5049052;28;20045;-87
2022/07/25 08:37:59;;;;;;;7.13;2.17;;;23.40;99.90;;;;;;5043863;28;20045;-90
2022/07/25 08:40:27;;;;;;;5.13;1.98;;;23.40;99.90;;;;;;5047940;28;20037;-86
2022/07/25 08:42:57;;;;;;;5.28;2.10;;;23.40;99.90;;;;;;5047173;28;20094;-89
2022/07/25 08:45:23;;;;;;;4.78;2.15;;;23.30;99.90;;;;;;5042139;28;20044;-84
2022/07/25 08:47:53;;;;;;;4.43;2.05;;;23.10;99.90;;;;;;5043664;28;20045;-81
2022/07/25 08:50:21;;;;;;;4.63;2.13;;;22.90;99.90;;;;;;5041325;28;20037;-88
2022/07/25 08:52:48;;;;;;;4.63;2.00;;;22.60;99.90;;;;;;5045561;28;20041;-84
2022/07/25 08:55:19;;;;;;;4.47;2.28;;;22.50;99.90;;;;;;5037673;28;20103;-87
2022/07/25 08:57:50;;;;;;;5.25;2.30;;;22.30;99.90;;;;;;5034389;28;20481;-89
2022/07/25 09:00:19;;;;;;;5.18;2.00;;;22.30;99.90;;;;;;5045240;28;20048;-85
2022/07/25 09:02:52;;;;;;;6.78;1.95;;;22.00;99.90;;;;;;5038746;28;20053;-83
2022/07/25 09:05:19;;;;;;;6.10;2.20;;;21.80;99.90;;;;;;5037557;28;20037;-84
2022/07/25 09:07:44;;;;;;;7.22;2.42;;;21.60;99.90;;;;;;5044737;28;20112;-79
2022/07/25 09:10:14;;;;;;;8.43;2.50;;;21.50;99.90;;;;;;5045250;28;20125;-70
2022/07/25 09:12:40;;;;;;;6.70;2.53;;;21.50;99.90;;;;;;5040753;28;20033;-74
2022/07/25 09:15:07;;;;;;;5.40;2.58;;;21.60;99.90;;;;;;5044586;28;20044;-71
2022/07/25 09:17:48;;;;;;;6.47;2.30;;;21.80;99.90;;;;;;5042031;28;20438;-73
2022/07/25 09:20:13;;;;;;;7.57;2.33;;;21.90;99.90;;;;;;5035778;28;20068;-71
2022/07/25 09:22:43;;;;;;;7.50;2.63;;;22.00;99.90;;;;;;5043383;28;20495;-72
2022/07/25 09:25:26;;;;;;;6.63;2.55;;;22.30;99.90;;;;;;5037252;28;20821;-75
2022/07/25 09:27:52;;;;;;;7.10;2.53;;;22.70;99.90;;;;;;5039383;28;20183;-78
2022/07/25 09:30:18;;;;;;;8.25;2.78;;;22.80;99.90;;;;;;5044570;28;20091;-75
2022/07/25 09:32:44;;;;;;;7.10;2.42;;;22.90;99.90;;;;;;5040872;28;20468;-83
2022/07/25 09:35:10;;;;;;;7.18;2.47;;;22.60;99.90;;;;;;5045192;28;20046;-86
2022/07/25 09:37:35;;;;;;;9.18;2.85;;;22.50;99.90;;;;;;5044703;28;20038;-76
2022/07/25 09:40:12;;;;;;;6.13;2.75;;;22.30;99.90;;;;;;5042787;28;20416;-86
2022/07/25 09:42:38;;;;;;;7.65;2.40;;;22.30;99.90;;;;;;5042459;28;20042;-82
2022/07/25 09:45:10;;;;;;;8.10;2.63;;;22.50;99.90;;;;;;5044375;28;20040;-81
2022/07/25 09:47:57;;;;;;;6.45;2.60;;;22.70;99.90;;;;;;5036473;28;20400;-78
2022/07/25 09:50:25;;;;;;;6.20;2.10;;;22.90;99.90;;;;;;5041062;28;20045;-80
2022/07/25 09:52:53;;;;;;;6.10;2.50;;;23.00;99.90;;;;;;5040944;28;20072;-77
2022/07/25 09:55:21;;;;;;;5.95;2.38;;;23.20;99.90;;;;;;5036584;28;20486;-80
2022/07/25 09:57:48;;;;;;;6.30;2.88;;;23.50;99.90;;;;;;5036762;28;20067;-82
2022/07/25 10:00:18;;;;;;;7.10;2.38;;;23.70;99.90;;;;;;5035080;28;20049;-81
2022/07/25 10:02:56;;;;;;;5.82;2.30;;;23.70;99.90;;;;;;5035056;28;20052;-87
2022/07/25 10:05:29;;;;;;;10.35;2.80;;;24.00;99.90;;;;;;5036686;28;20044;-81
2022/07/25 10:07:56;;;;;;;7.95;2.53;;;24.20;99.90;;;;;;5032225;28;20116;-73
2022/07/25 10:10:30;;;;;;;6.88;2.65;;;24.50;99.90;;;;;;5034105;28;20046;-76
2022/07/25 10:13:03;;;;;;;4.70;2.20;;;24.50;99.90;;;;;;5034570;28;20048;-84
2022/07/25 10:15:44;;;;;;;4.10;2.20;;;24.40;99.90;;;;;;5035918;28;20041;-88
2022/07/25 10:18:10;;;;;;;6.55;2.08;;;24.20;99.90;;;;;;5034375;28;20057;-79
2022/07/25 10:20:36;;;;;;;7.38;2.10;;;24.30;99.90;;;;;;5036879;28;20187;-84
2022/07/25 10:23:03;;;;;;;7.28;2.25;;;24.10;99.90;;;;;;5038000;28;20536;-85
2022/07/25 10:25:30;;;;;;;5.30;2.28;;;24.30;99.90;;;;;;5038409;28;20563;-86
2022/07/25 10:28:08;;;;;;;6.85;2.35;;;24.20;99.90;;;;;;5033029;28;20128;-84
2022/07/25 10:30:39;;;;;;;6.63;2.30;;;24.20;99.90;;;;;;5032673;28;20033;-83
2022/07/25 10:33:20;;;;;;;8.40;2.00;;;24.20;99.90;;;;;;5034177;28;20053;-86
2022/07/25 10:35:46;;;;;;;8.05;2.30;;;24.20;99.90;;;;;;5037225;28;20053;-82
2022/07/25 10:38:12;;;;;;;4.97;2.00;;;23.90;99.90;;;;;;5059997;28;20067;-84
2022/07/25 10:40:47;;;;;;;4.88;2.00;;;23.70;99.90;;;;;;5050957;28;20041;-82
2022/07/25 10:43:20;;;;;;;6.95;2.25;;;23.60;99.90;;;;;;5039251;28;20068;-81
2022/07/25 10:45:58;;;;;;;6.28;2.10;;;23.50;99.90;;;;;;5043751;28;20140;-81
2022/07/25 10:48:31;;;;;;;8.20;2.10;;;23.50;99.90;;;;;;5048545;28;20072;-79
2022/07/25 10:51:00;;;;;;;4.93;2.42;;;23.50;99.90;;;;;;5032568;28;20044;-79
2022/07/25 10:53:43;;;;;;;4.53;2.00;;;23.60;99.90;;;;;;5041461;28;20128;-82
2022/07/25 10:56:27;;;;;;;4.57;2.15;;;23.50;99.90;;;;;;5055103;28;20102;-84
2022/07/25 10:58:59;;;;;;;5.55;2.38;;;23.50;99.90;;;;;;5048978;28;20045;-87
2022/07/25 11:01:36;;;;;;;5.28;2.47;;;23.30;99.90;;;;;;5050367;28;20094;-84
2022/07/25 11:04:05;;;;;;;5.55;2.50;;;23.30;99.90;;;;;;5041667;28;20131;-85
2022/07/25 11:06:34;;;;;;;7.32;2.38;;;23.20;99.90;;;;;;5056781;28;20048;-80
2022/07/25 11:09:12;;;;;;;6.78;2.00;;;23.10;99.90;;;;;;5046610;28;20499;-82
2022/07/25 11:11:50;;;;;;;6.40;2.40;;;23.10;99.90;;;;;;5041092;28;20045;-82
2022/07/25 11:14:23;;;;;;;5.03;2.10;;;23.30;99.90;;;;;;5042883;28;20038;-85
2022/07/25 11:16:52;;;;;;;5.72;2.80;;;23.50;99.90;;;;;;5044225;28;20033;-86
2022/07/25 11:19:19;;;;;;;5.68;2.50;;;23.90;99.90;;;;;;5039205;28;20072;-85
2022/07/25 11:21:47;;;;;;;5.60;2.75;;;24.80;99.90;;;;;;5040826;28;20442;-86
2022/07/25 11:24:12;;;;;;;8.27;2.90;;;25.40;99.90;;;;;;5038626;28;20045;-86
2022/07/25 11:26:52;;;;;;;6.05;2.58;;;25.40;99.80;;;;;;5042109;28;20044;-81
2022/07/25 11:29:27;;;;;;;6.47;2.38;;;24.90;99.30;;;;;;5036326;28;20037;-81
2022/07/25 11:31:54;;;;;;;8.23;2.60;;;24.30;99.90;;;;;;5036422;28;20049;-81
2022/07/25 11:34:23;;;;;;;5.60;2.30;;;24.20;99.90;;;;;;5039529;28;20042;-80
2022/07/25 11:36:50;;;;;;;5.80;2.20;;;24.40;99.90;;;;;;5036371;28;20046;-81
2022/07/25 11:39:17;;;;;;;7.25;2.35;;;24.80;99.80;;;;;;5036042;28;20037;-81
2022/07/25 11:41:42;;;;;;;6.15;2.25;;;25.00;99.30;;;;;;5041511;28;20060;-82
2022/07/25 11:44:08;;;;;;;6.10;2.50;;;24.90;99.60;;;;;;5040632;28;20560;-82
2022/07/25 11:46:43;;;;;;;7.13;2.20;;;24.70;99.00;;;;;;5041628;28;20033;-84
2022/07/25 11:49:08;;;;;;;7.88;2.20;;;24.50;98.70;;;;;;5038318;28;20045;-84
2022/07/25 11:51:38;;;;;;;6.13;2.60;;;24.20;99.30;;;;;;5041242;28;20043;-85
2022/07/25 11:54:09;;;;;;;7.10;2.40;;;24.30;99.50;;;;;;5041456;28;20050;-85
2022/07/25 11:56:39;;;;;;;9.15;2.75;;;24.40;99.40;;;;;;5040656;28;20554;-84
2022/07/25 11:59:04;;;;;;;7.63;2.60;;;24.50;99.40;;;;;;5042032;28;20049;-86
2022/07/25 12:01:38;;;;;;;7.20;2.28;;;24.50;99.50;;;;;;5041987;28;20044;-84
2022/07/25 12:04:09;;;;;;;8.05;2.63;;;24.60;99.30;;;;;;5035232;28;20542;-84
2022/07/25 12:06:35;;;;;;;6.18;2.40;;;24.80;98.40;;;;;;5044201;28;20045;-83
2022/07/25 12:09:16;;;;;;;7.07;2.10;;;25.00;97.70;;;;;;5043585;28;20037;-84
2022/07/25 12:11:42;;;;;;;8.18;2.45;;;25.30;97.30;;;;;;5038535;28;20091;-84
2022/07/25 12:14:08;;;;;;;8.57;2.35;;;25.70;97.70;;;;;;5045015;28;20045;-83
2022/07/25 12:16:34;;;;;;;6.78;2.90;;;25.80;97.80;;;;;;5043885;28;20500;-83
2022/07/25 12:19:00;;;;;;;9.35;3.15;;;25.80;98.70;;;;;;5046639;28;20077;-80
2022/07/25 12:21:26;;;;;;;4.38;1.92;;;25.80;98.10;;;;;;5044979;28;20064;-83
2022/07/25 12:23:53;;;;;;;5.15;2.22;;;25.90;97.70;;;;;;5043493;28;20051;-82
2022/07/25 12:26:19;;;;;;;6.20;2.10;;;25.70;97.50;;;;;;5043794;28;20109;-82
2022/07/25 12:28:44;;;;;;;7.38;2.55;;;25.70;97.40;;;;;;5046859;28;20076;-81
2022/07/25 12:31:10;;;;;;;6.22;2.25;;;25.60;97.60;;;;;;5043083;28;20049;-83
2022/07/25 12:33:36;;;;;;;7.40;2.10;;;25.60;97.20;;;;;;5047292;28;20040;-84
2022/07/25 12:36:02;;;;;;;6.38;2.30;;;25.80;96.90;;;;;;5042815;28;20037;-82
2022/07/25 12:38:28;;;;;;;6.95;2.38;;;25.90;97.20;;;;;;5044984;28;20037;-85
2022/07/25 12:40:55;;;;;;;4.63;2.13;;;25.90;96.90;;;;;;5044385;28;20045;-82
2022/07/25 12:43:22;;;;;;;9.38;3.08;;;26.10;96.80;;;;;;5047353;28;20041;-82
2022/07/25 12:45:47;;;;;;;8.85;2.50;;;26.00;97.80;;;;;;5045118;28;20045;-83
2022/07/25 12:48:14;;;;;;;8.80;2.80;;;26.00;97.60;;;;;;5044198;28;20067;-82